الصفحة الرئيسية
METAR-TAF:

METAR-TAF

مطار :

Meeker Airport

Meeker, كولورادو, الولايات المتحدة

دائرة عرض: 40-02-32N, خط طول: 107-53-23W, ارتفاع: 1948 متر

مراقبة الطقس الحالي

تاريخ ووقت الإصدار 22 دقيقة قبل الساعة 05:53UTC
رياح هادئة
درجة الحرارة -6°درجة مئوية
الرطوبة 53%
ضغط 1025 hPa
الرؤية: 16.1 كم
سماء صافية

METAR: KEEO 210553Z AUTO 00000KT 10SM CLR M06/M14 A3027 RMK AO2 SLP264 T10611139 10061 21078 51006

زمن: 23:15 (06:15 UTC)


TAF: مفقودة

أرصاد الطقس والتوقعات من أكثر من 4000 مطار (تقارير الطقس للمطار METAR والتنبؤ بالطقس بالمطارTAF).

المحطات المتاحة هي النقط الصفراء والحمراء على الخريطة.

حرك المؤشر فوق النقطة لمعرفة اسم المحطة.

ثم انقر لمعرفة أرصاد وتوقعات الطقس.

لتغيير الخارطة: اضغط على الأزرار الخضراء مع رمز الصليب الأسود للتكبير. على الزر الأخضر مع شرطة للتصغير، أو على الأسهم الخضراء للخرائط المجاورة.


METAR-TAF: